Startpagina
METAR-TAF:

METAR-TAF

Vliegvelden :

Vliegbasis Deelen

Arnhem, Nederland

breedte: 52-04N, lengte: 005-53E, hoogte: 48 m

Actueel weer

Dit bericht is 36 minuten geleden gemaakt, om 10:25 UTC
Wind 15 kt uit het zuidwesten, variërend tussen het zuiden en het westen
Temperatuur 21°C
Vochtigheid 69%
Druk 1016 hPa
Zicht 10 km of meer
Verspreide wolken op 2700 ft
Gebroken wolken op 3100 ft

METAR: EHDL 191025Z AUTO 23015KT 170V260 9999 SCT027 BKN031 21/15 Q1016 BLU

Tijdstip: 13:01 (11:01 UTC)

Verwachting

Dit bericht is 18 uur en het 22 minuten geleden gemaakt, om 16:39 UTC
Verwachting geldig van 18 om 17 UTC tot 19 om 05 UTC
Wind 10 kt uit het westzuidwesten
Zicht 10 km of meer
geen wolken onder 1500 m en geen cumulonimbus
Wijzigt naar
van 18 om 18 UTC tot 18 om 21 UTC
Wind 6 kt uit het zuidzuidwesten

TAF: EHDL 181639Z 1817/1905 25010KT CAVOK BECMG 1818/1821 21006KT

Waarnemingen en weersverwachtingen van meer dan 4000 vliegvelden (METAR en TAF).

De beschikbare stations zijn de gele en rode punten op de kaart.

Ga met uw muis naar het station om de naam te zien.

Klik dan om waarnemingen en weersverwachtingen te zien.

kaart wijzigen: klik op de groene knoppen met een zwart kruis om in te zoomen, op de groene knop met een streepje om uit te zoomen of op de groene pijlen voor aangrenzende kaarten.


METAR-TAF: